createdAt,value
2019-02-25T06:35:59.772Z,20.90
2019-02-25T06:36:11.717Z,20.80
2019-02-25T06:36:25.795Z,20.80
2019-02-25T06:36:37.524Z,20.80
2019-02-25T06:36:51.603Z,20.80
2019-02-25T06:37:03.334Z,20.80
2019-02-25T06:37:19.747Z,20.80
2019-02-25T06:37:31.473Z,20.80
2019-02-25T06:37:43.200Z,20.80
2019-02-25T06:37:54.969Z,20.80
2019-02-25T06:38:06.820Z,20.80
2019-02-25T06:38:27.140Z,20.80
2019-02-25T06:38:38.879Z,20.80
2019-02-25T06:38:50.689Z,20.90
2019-02-25T06:39:02.421Z,20.90
2019-02-25T06:39:16.545Z,20.90
2019-02-25T06:39:28.266Z,20.90
2019-02-25T06:39:39.998Z,20.90
2019-02-25T06:39:54.069Z,20.90
2019-02-25T06:40:05.811Z,20.90
2019-02-25T06:40:22.256Z,20.90
2019-02-25T06:40:33.978Z,20.90
2019-02-25T06:40:45.708Z,20.90
2019-02-25T06:40:57.442Z,20.90
2019-02-25T06:41:09.209Z,20.90
2019-02-25T06:41:20.952Z,20.90
2019-02-25T06:41:32.692Z,20.90
2019-02-25T06:41:44.429Z,20.90
2019-02-25T06:41:56.163Z,20.90
2019-02-25T06:42:07.908Z,20.90
2019-02-25T06:42:19.642Z,20.90
2019-02-25T06:42:33.727Z,20.90
2019-02-25T06:42:45.458Z,20.90
2019-02-25T06:42:57.186Z,20.90
2019-02-25T06:43:08.982Z,20.90
2019-02-25T06:43:20.713Z,20.90
2019-02-25T06:43:32.483Z,20.90
2019-02-25T06:43:44.211Z,20.90
2019-02-25T06:43:55.940Z,20.90
2019-02-25T06:44:07.680Z,20.90
2019-02-25T06:44:24.098Z,20.90
2019-02-25T06:44:35.828Z,20.90
2019-02-25T06:44:49.903Z,20.90
2019-02-25T06:45:01.632Z,20.90
2019-02-25T06:45:15.877Z,20.90
2019-02-25T06:45:31.205Z,20.90
2019-02-25T06:45:41.681Z,20.90
2019-02-25T06:45:55.752Z,20.90
2019-02-25T06:46:07.515Z,20.90
2019-02-25T06:46:21.556Z,20.90
2019-02-25T06:46:33.293Z,20.90
2019-02-25T06:46:47.361Z,20.90
2019-02-25T06:46:59.092Z,20.90
2019-02-25T06:47:13.164Z,20.90
2019-02-25T06:47:24.893Z,20.90
2019-02-25T06:47:38.965Z,20.90
2019-02-25T06:47:50.692Z,20.90
2019-02-25T06:48:02.434Z,20.90
2019-02-25T06:48:14.163Z,20.90
2019-02-25T06:48:28.238Z,20.90
2019-02-25T06:48:39.994Z,20.90
2019-02-25T06:48:51.777Z,20.90
2019-02-25T06:49:03.717Z,20.90
2019-02-25T06:49:18.567Z,20.90
2019-02-25T06:49:32.635Z,20.90
2019-02-25T06:49:44.366Z,20.90
2019-02-25T06:49:58.438Z,20.90
2019-02-25T06:50:10.166Z,20.90
2019-02-25T06:50:24.297Z,20.90
2019-02-25T06:50:38.372Z,20.90
2019-02-25T06:50:50.100Z,20.90
2019-02-25T06:51:01.835Z,21.00
2019-02-25T06:51:13.572Z,21.00
2019-02-25T06:51:25.304Z,21.00
2019-02-25T06:51:37.044Z,21.00
2019-02-25T06:51:48.768Z,21.00
2019-02-25T06:52:00.498Z,21.00
2019-02-25T06:52:12.239Z,21.00
2019-02-25T06:52:26.316Z,21.00
2019-02-25T06:52:38.035Z,21.00
2019-02-25T06:52:52.108Z,21.00
2019-02-25T06:53:03.836Z,21.00
2019-02-25T06:53:15.612Z,21.00
2019-02-25T06:53:27.379Z,21.00
2019-02-25T06:53:39.112Z,21.00
2019-02-25T06:53:50.864Z,21.00
2019-02-25T06:54:02.597Z,21.00
2019-02-25T06:54:14.329Z,21.00
2019-02-25T06:54:26.063Z,21.00
2019-02-25T06:54:37.788Z,21.00
2019-02-25T06:54:49.521Z,21.00
2019-02-25T06:55:03.595Z,21.00
2019-02-25T06:55:15.325Z,21.00
2019-02-25T06:55:29.398Z,21.00
2019-02-25T06:55:41.133Z,21.00
2019-02-25T06:55:55.202Z,21.00
2019-02-25T06:56:07.020Z,21.00
2019-02-25T06:56:18.750Z,21.00
2019-02-25T06:56:30.480Z,21.00
2019-02-25T06:56:42.211Z,21.00
2019-02-25T06:56:53.945Z,21.00
2019-02-25T06:57:05.671Z,21.00
2019-02-25T06:57:17.410Z,21.00
2019-02-25T06:57:29.175Z,21.00
2019-02-25T06:57:45.591Z,21.00
2019-02-25T06:57:57.317Z,21.00
2019-02-25T06:58:09.133Z,21.00
2019-02-25T06:58:22.948Z,21.10
2019-02-25T06:58:32.648Z,21.00
2019-02-25T06:58:46.723Z,21.00
2019-02-25T06:58:58.523Z,21.00
2019-02-25T06:59:10.256Z,21.10
2019-02-25T06:59:21.996Z,21.00
2019-02-25T06:59:33.727Z,21.10
2019-02-25T06:59:45.456Z,21.10
2019-02-25T06:59:57.184Z,21.10
2019-02-25T07:00:08.921Z,21.10
2019-02-25T07:00:20.651Z,21.10
2019-02-25T07:00:32.381Z,21.10
2019-02-25T07:00:44.122Z,21.10
2019-02-25T07:00:55.866Z,21.10
2019-02-25T07:01:07.581Z,21.10
2019-02-25T07:01:19.308Z,21.10
2019-02-25T07:01:31.041Z,21.10
2019-02-25T07:01:42.836Z,21.10
2019-02-25T07:01:54.567Z,21.10
2019-02-25T07:02:06.472Z,21.10
2019-02-25T07:02:22.891Z,21.00
2019-02-25T07:02:34.617Z,21.00
2019-02-25T07:02:46.346Z,21.10
2019-02-25T07:02:58.083Z,21.10
2019-02-25T07:03:12.154Z,21.10
2019-02-25T07:03:23.886Z,21.00
2019-02-25T07:03:37.958Z,21.10
2019-02-25T07:03:49.694Z,21.00
2019-02-25T07:04:03.825Z,21.10
2019-02-25T07:04:20.243Z,21.00
2019-02-25T07:04:32.199Z,21.00
2019-02-25T07:04:43.953Z,21.10
2019-02-25T07:04:58.026Z,21.10
2019-02-25T07:05:09.757Z,21.10
2019-02-25T07:05:23.830Z,21.10
2019-02-25T07:05:35.558Z,21.00
2019-02-25T07:05:47.327Z,21.10
2019-02-25T07:05:59.058Z,21.10
2019-02-25T07:06:10.842Z,21.10
2019-02-25T07:06:22.577Z,21.10
2019-02-25T07:06:38.992Z,21.00
2019-02-25T07:06:50.733Z,21.00
2019-02-25T07:07:04.802Z,21.10
2019-02-25T07:07:16.542Z,21.10
2019-02-25T07:07:30.611Z,21.00
2019-02-25T07:07:42.373Z,21.10
2019-02-25T07:07:54.103Z,21.10
2019-02-25T07:08:05.832Z,21.10
2019-02-25T07:08:17.581Z,21.10
2019-02-25T07:08:29.313Z,21.10
2019-02-25T07:08:41.044Z,21.10
2019-02-25T07:08:52.851Z,21.10
2019-02-25T07:09:04.628Z,21.10
2019-02-25T07:09:16.349Z,21.10
2019-02-25T07:09:30.455Z,21.10
2019-02-25T07:09:42.185Z,21.10
2019-02-25T07:09:53.915Z,21.10
2019-02-25T07:10:05.641Z,21.10
2019-02-25T07:10:17.435Z,21.10
2019-02-25T07:10:29.168Z,21.10
2019-02-25T07:10:40.998Z,21.10
2019-02-25T07:10:52.729Z,21.10
2019-02-25T07:11:04.486Z,21.10
2019-02-25T07:11:20.905Z,21.10
2019-02-25T07:11:32.686Z,21.10
2019-02-25T07:11:44.433Z,21.10
2019-02-25T07:12:00.845Z,21.10
2019-02-25T07:12:12.618Z,21.10
2019-02-25T07:12:24.360Z,21.10
2019-02-25T07:12:38.430Z,21.10
2019-02-25T07:12:50.183Z,21.10
2019-02-25T07:13:01.910Z,21.10
2019-02-25T07:13:13.641Z,21.10
2019-02-25T07:13:25.370Z,21.10
2019-02-25T07:13:37.101Z,21.10
2019-02-25T07:13:48.830Z,21.10
2019-02-25T07:14:02.908Z,21.10
2019-02-25T07:14:14.684Z,21.10
2019-02-25T07:14:26.419Z,21.10
2019-02-25T07:14:40.539Z,21.10
2019-02-25T07:14:54.616Z,21.10
2019-02-25T07:15:06.437Z,21.10
2019-02-25T07:15:18.163Z,21.10
2019-02-25T07:15:29.893Z,21.10
2019-02-25T07:15:41.627Z,21.10
2019-02-25T07:15:53.356Z,21.10
2019-02-25T07:16:07.428Z,21.10
2019-02-25T07:16:19.196Z,21.10
2019-02-25T07:16:30.923Z,21.10
2019-02-25T07:16:42.653Z,21.10
2019-02-25T07:16:54.386Z,21.10
2019-02-25T07:17:06.242Z,21.10
2019-02-25T07:17:17.976Z,21.10
2019-02-25T07:17:29.705Z,21.10
2019-02-25T07:17:41.435Z,21.10
2019-02-25T07:17:53.250Z,21.10
2019-02-25T07:18:06.799Z,21.10
2019-02-25T07:18:16.717Z,21.10
2019-02-25T07:18:30.788Z,21.10
2019-02-25T07:18:42.528Z,21.10
2019-02-25T07:18:58.946Z,21.10
2019-02-25T07:19:10.756Z,21.10
2019-02-25T07:19:22.485Z,21.10
2019-02-25T07:19:34.258Z,21.10
2019-02-25T07:19:45.987Z,21.10
2019-02-25T07:19:57.716Z,21.10
2019-02-25T07:20:09.447Z,21.10
2019-02-25T07:20:21.181Z,21.10
2019-02-25T07:20:32.908Z,21.10
2019-02-25T07:20:46.987Z,21.10
2019-02-25T07:20:58.719Z,21.10
2019-02-25T07:21:10.444Z,21.10
2019-02-25T07:21:22.177Z,21.10
2019-02-25T07:21:33.908Z,21.10
2019-02-25T07:21:45.693Z,21.10
2019-02-25T07:21:57.422Z,21.10
2019-02-25T07:22:09.212Z,21.10
2019-02-25T07:22:20.946Z,21.10
2019-02-25T07:22:35.017Z,21.10
2019-02-25T07:22:46.751Z,21.10
2019-02-25T07:22:58.480Z,21.10
2019-02-25T07:23:10.214Z,21.10
2019-02-25T07:23:21.941Z,21.10
2019-02-25T07:23:33.671Z,21.20
2019-02-25T07:23:45.400Z,21.10
2019-02-25T07:23:57.136Z,21.10
2019-02-25T07:24:08.879Z,21.10
2019-02-25T07:24:25.293Z,21.10
2019-02-25T07:24:37.024Z,21.10
2019-02-25T07:24:52.758Z,21.10
2019-02-25T07:25:00.486Z,21.10
2019-02-25T07:25:14.600Z,21.10
2019-02-25T07:25:26.334Z,21.10
2019-02-25T07:25:38.066Z,21.10
2019-02-25T07:25:49.791Z,21.10
2019-02-25T07:26:01.524Z,21.10
2019-02-25T07:26:17.941Z,21.10
2019-02-25T07:26:29.677Z,21.10
2019-02-25T07:26:43.749Z,21.10
2019-02-25T07:26:55.486Z,21.10
2019-02-25T07:27:09.606Z,21.10
2019-02-25T07:27:23.687Z,21.10
2019-02-25T07:27:35.420Z,21.10
2019-02-25T07:27:49.492Z,21.10
2019-02-25T07:28:01.227Z,21.10
2019-02-25T07:28:17.646Z,21.10
2019-02-25T07:28:29.381Z,21.10
2019-02-25T07:28:43.456Z,21.20
2019-02-25T07:28:55.186Z,21.10
2019-02-25T07:29:09.297Z,21.20
2019-02-25T07:29:21.129Z,21.10
2019-02-25T07:29:32.857Z,21.20
2019-02-25T07:29:44.586Z,21.20
2019-02-25T07:29:56.319Z,21.10
2019-02-25T07:30:10.399Z,21.20
2019-02-25T07:30:22.127Z,21.20
2019-02-25T07:30:36.199Z,21.10
2019-02-25T07:30:47.929Z,21.10
2019-02-25T07:31:02.018Z,21.10
2019-02-25T07:31:13.749Z,21.10
2019-02-25T07:31:25.489Z,21.20
2019-02-25T07:31:37.220Z,21.20
2019-02-25T07:31:48.950Z,21.20
2019-02-25T07:32:00.744Z,21.10
2019-02-25T07:32:17.161Z,21.10
2019-02-25T07:32:30.176Z,21.10
2019-02-25T07:32:40.620Z,21.10
2019-02-25T07:32:52.351Z,21.10
2019-02-25T07:33:08.947Z,21.10
2019-02-25T07:33:25.355Z,21.10
2019-02-25T07:33:37.082Z,21.10
2019-02-25T07:33:48.813Z,21.20
2019-02-25T07:34:00.543Z,21.20
2019-02-25T07:34:14.760Z,21.20
2019-02-25T07:34:26.492Z,21.10
2019-02-25T07:34:38.221Z,21.20
2019-02-25T07:34:52.296Z,21.20
2019-02-25T07:35:04.026Z,21.10
2019-02-25T07:35:15.829Z,21.20
2019-02-25T07:35:27.559Z,21.20
2019-02-25T07:35:39.293Z,21.20
2019-02-25T07:35:51.021Z,21.20
2019-02-25T07:36:02.759Z,21.20
2019-02-25T07:36:14.697Z,21.20
2019-02-25T07:36:31.114Z,21.20
2019-02-25T07:36:42.845Z,21.20
2019-02-25T07:36:54.588Z,21.20
2019-02-25T07:37:06.514Z,21.20
2019-02-25T07:37:20.587Z,21.20
2019-02-25T07:37:32.328Z,21.20
2019-02-25T07:37:44.059Z,21.20
2019-02-25T07:37:55.787Z,21.20
2019-02-25T07:38:07.515Z,21.20
2019-02-25T07:38:19.249Z,21.20
2019-02-25T07:38:39.168Z,21.20
2019-02-25T07:38:42.706Z,21.20
2019-02-25T07:38:54.468Z,21.20
2019-02-25T07:39:06.195Z,21.20
2019-02-25T07:39:17.927Z,21.20
2019-02-25T07:39:29.662Z,21.20
2019-02-25T07:39:43.736Z,21.20
2019-02-25T07:39:55.508Z,21.20
2019-02-25T07:40:07.241Z,21.20
2019-02-25T07:40:21.324Z,21.20
2019-02-25T07:40:33.059Z,21.20
2019-02-25T07:40:49.473Z,21.20
2019-02-25T07:41:01.210Z,21.20
2019-02-25T07:41:15.283Z,21.20
2019-02-25T07:41:27.012Z,21.20
2019-02-25T07:41:41.087Z,21.20
2019-02-25T07:41:52.821Z,21.20
2019-02-25T07:42:07.056Z,21.20
2019-02-25T07:42:21.127Z,21.30
2019-02-25T07:42:32.862Z,21.20
2019-02-25T07:42:46.931Z,21.20
2019-02-25T07:42:58.664Z,21.20
2019-02-25T07:43:12.737Z,21.30
2019-02-25T07:43:24.469Z,21.20
2019-02-25T07:43:38.546Z,21.30
2019-02-25T07:43:50.277Z,21.20
2019-02-25T07:44:04.370Z,21.20
2019-02-25T07:44:16.147Z,21.20
2019-02-25T07:44:27.876Z,21.20
2019-02-25T07:44:39.608Z,21.30
2019-02-25T07:44:51.342Z,21.30
2019-02-25T07:45:03.204Z,21.20
2019-02-25T07:45:14.940Z,21.20
2019-02-25T07:45:26.683Z,21.30
2019-02-25T07:45:38.410Z,21.30
2019-02-25T07:45:50.141Z,21.20
2019-02-25T07:46:01.875Z,21.30
2019-02-25T07:46:13.604Z,21.20
2019-02-25T07:46:25.332Z,21.30
2019-02-25T07:46:37.062Z,21.30
2019-02-25T07:46:48.791Z,21.20
2019-02-25T07:47:00.520Z,21.30
2019-02-25T07:47:12.313Z,21.30
2019-02-25T07:47:23.983Z,21.20
2019-02-25T07:47:38.054Z,21.20
2019-02-25T07:47:49.799Z,21.20
2019-02-25T07:48:06.215Z,21.20
2019-02-25T07:48:17.957Z,21.20
2019-02-25T07:48:32.038Z,21.20
2019-02-25T07:48:43.769Z,21.20
2019-02-25T07:48:55.496Z,21.20
2019-02-25T07:49:07.287Z,21.30
2019-02-25T07:49:19.098Z,21.30
2019-02-25T07:49:30.827Z,21.30
2019-02-25T07:49:42.558Z,21.30
2019-02-25T07:49:54.288Z,21.30
2019-02-25T07:50:06.190Z,21.30
2019-02-25T07:50:20.302Z,21.20
2019-02-25T07:50:32.038Z,21.30
2019-02-25T07:50:47.267Z,21.30
2019-02-25T07:50:57.854Z,21.20
2019-02-25T07:51:09.659Z,21.30
2019-02-25T07:51:21.434Z,21.30
2019-02-25T07:51:33.164Z,21.30
2019-02-25T07:51:44.894Z,21.20
2019-02-25T07:51:58.969Z,21.30
2019-02-25T07:52:10.699Z,21.30
2019-02-25T07:52:24.775Z,21.30
2019-02-25T07:52:36.505Z,21.30
2019-02-25T07:52:50.582Z,21.30
2019-02-25T07:53:02.312Z,21.30
2019-02-25T07:53:14.197Z,21.30
2019-02-25T07:53:28.307Z,21.30
2019-02-25T07:53:40.040Z,21.30
2019-02-25T07:53:51.768Z,21.30
2019-02-25T07:54:03.545Z,21.30
2019-02-25T07:54:15.277Z,21.30
2019-02-25T07:54:27.036Z,21.30
2019-02-25T07:54:38.765Z,21.30
2019-02-25T07:54:50.493Z,21.30
2019-02-25T07:55:02.229Z,21.30
2019-02-25T07:55:16.374Z,21.30
2019-02-25T07:55:32.830Z,21.30
2019-02-25T07:55:44.597Z,21.30
2019-02-25T07:56:02.353Z,21.30
2019-02-25T07:56:08.060Z,21.30
2019-02-25T07:56:19.796Z,21.30
2019-02-25T07:56:31.639Z,21.30
2019-02-25T07:56:43.373Z,21.30
2019-02-25T07:56:55.130Z,21.30
2019-02-25T07:57:06.905Z,21.30
2019-02-25T07:57:18.634Z,21.30
2019-02-25T07:57:35.102Z,21.30
2019-02-25T07:57:46.836Z,21.30
2019-02-25T07:57:58.563Z,21.30
2019-02-25T07:58:12.644Z,21.30
2019-02-25T07:58:24.377Z,21.30
2019-02-25T07:58:38.449Z,21.30
2019-02-25T07:58:50.184Z,21.30
2019-02-25T07:59:06.598Z,21.30
2019-02-25T07:59:18.334Z,21.30
2019-02-25T07:59:32.431Z,21.30
2019-02-25T07:59:44.225Z,21.30
2019-02-25T07:59:55.953Z,21.30
2019-02-25T08:00:07.900Z,21.30
2019-02-25T08:00:24.333Z,21.30
2019-02-25T08:00:36.069Z,21.30
2019-02-25T08:00:47.796Z,21.30
2019-02-25T08:00:59.530Z,21.30
2019-02-25T08:01:11.259Z,21.30
2019-02-25T08:01:22.985Z,21.30
2019-02-25T08:01:34.714Z,21.30
2019-02-25T08:01:46.509Z,21.30
2019-02-25T08:01:58.241Z,21.30
2019-02-25T08:02:09.972Z,21.30
2019-02-25T08:02:21.847Z,21.30
2019-02-25T08:02:33.613Z,21.30
2019-02-25T08:02:50.037Z,21.30
2019-02-25T08:03:01.770Z,21.30
2019-02-25T08:03:13.505Z,21.30
2019-02-25T08:03:25.232Z,21.30
2019-02-25T08:03:41.662Z,21.30
2019-02-25T08:03:53.418Z,21.30
2019-02-25T08:04:05.239Z,21.30
2019-02-25T08:04:17.021Z,21.30
2019-02-25T08:04:28.797Z,21.30
2019-02-25T08:04:40.525Z,21.30
2019-02-25T08:04:52.253Z,21.30
2019-02-25T08:05:03.990Z,21.30
2019-02-25T08:05:15.720Z,21.30
2019-02-25T08:05:32.136Z,21.30
2019-02-25T08:05:43.866Z,21.30
2019-02-25T08:05:57.940Z,21.30
2019-02-25T08:06:11.940Z,21.30
2019-02-25T08:06:21.728Z,21.30
2019-02-25T08:06:33.458Z,21.30
2019-02-25T08:06:45.186Z,21.30
2019-02-25T08:06:56.917Z,21.30
2019-02-25T08:07:08.647Z,21.30
2019-02-25T08:07:20.375Z,21.30
2019-02-25T08:07:32.104Z,21.30
2019-02-25T08:07:46.181Z,21.30
2019-02-25T08:07:57.915Z,21.30
2019-02-25T08:08:12.153Z,21.30
2019-02-25T08:08:26.240Z,21.30
2019-02-25T08:08:37.958Z,21.30
2019-02-25T08:08:52.033Z,21.30
2019-02-25T08:09:03.762Z,21.30
2019-02-25T08:09:17.839Z,21.30
2019-02-25T08:09:29.599Z,21.30
2019-02-25T08:09:41.330Z,21.30
2019-02-25T08:09:53.065Z,21.30
2019-02-25T08:10:04.792Z,21.30
2019-02-25T08:10:18.868Z,21.30
2019-02-25T08:10:30.635Z,21.30
2019-02-25T08:10:42.364Z,21.30
2019-02-25T08:10:56.442Z,21.30
2019-02-25T08:11:08.385Z,21.30
2019-02-25T08:11:22.460Z,21.30
2019-02-25T08:11:34.188Z,21.30
2019-02-25T08:11:48.261Z,21.30
2019-02-25T08:12:00.006Z,21.30
2019-02-25T08:12:11.770Z,21.30
2019-02-25T08:12:25.852Z,21.30
2019-02-25T08:12:37.583Z,21.30
2019-02-25T08:12:54.063Z,21.30
2019-02-25T08:13:10.490Z,21.30
2019-02-25T08:13:22.220Z,21.30
2019-02-25T08:13:36.295Z,21.30
2019-02-25T08:13:48.027Z,21.30
2019-02-25T08:14:02.114Z,21.30
2019-02-25T08:14:13.909Z,21.30
2019-02-25T08:14:25.645Z,21.30
2019-02-25T08:14:37.390Z,21.30
2019-02-25T08:14:53.815Z,21.30
2019-02-25T08:15:05.544Z,21.30
2019-02-25T08:15:19.618Z,21.30
2019-02-25T08:15:31.448Z,21.30
2019-02-25T08:15:45.526Z,21.30
2019-02-25T08:15:57.256Z,21.30
2019-02-25T08:16:11.327Z,21.30
2019-02-25T08:16:23.267Z,21.30
2019-02-25T08:16:37.807Z,21.30
2019-02-25T08:16:51.882Z,21.30
2019-02-25T08:17:04.628Z,21.30
2019-02-25T08:17:17.692Z,21.30
2019-02-25T08:17:29.434Z,21.30
2019-02-25T08:17:41.218Z,21.30
2019-02-25T08:17:52.962Z,21.30
2019-02-25T08:18:04.685Z,21.30
2019-02-25T08:18:16.420Z,21.30
2019-02-25T08:18:30.494Z,21.30
2019-02-25T08:18:42.224Z,21.30
2019-02-25T08:18:56.298Z,21.30
2019-02-25T08:19:08.031Z,21.30
2019-02-25T08:19:22.176Z,21.30
2019-02-25T08:19:33.936Z,21.30
2019-02-25T08:19:48.011Z,21.30
2019-02-25T08:19:59.741Z,21.30
2019-02-25T08:20:13.838Z,21.40
2019-02-25T08:20:25.565Z,21.30
2019-02-25T08:20:37.298Z,21.30
2019-02-25T08:20:49.028Z,21.30
2019-02-25T08:21:00.757Z,21.40
2019-02-25T08:21:12.566Z,21.40
2019-02-25T08:21:24.298Z,21.30
2019-02-25T08:21:36.027Z,21.40
2019-02-25T08:21:47.860Z,21.40
2019-02-25T08:21:59.590Z,21.40
2019-02-25T08:22:11.368Z,21.40
2019-02-25T08:22:23.139Z,21.30
2019-02-25T08:22:34.866Z,21.30
2019-02-25T08:22:46.646Z,21.30
2019-02-25T08:23:00.729Z,21.40
2019-02-25T08:23:12.456Z,21.40
2019-02-25T08:23:26.527Z,21.30
2019-02-25T08:23:38.298Z,21.30
2019-02-25T08:23:50.028Z,21.30
2019-02-25T08:24:01.759Z,21.40
2019-02-25T08:24:13.515Z,21.30
2019-02-25T08:24:30.592Z,21.40
2019-02-25T08:24:36.997Z,21.40
2019-02-25T08:24:48.730Z,21.30
2019-02-25T08:25:00.458Z,21.30
2019-02-25T08:25:12.214Z,21.30
2019-02-25T08:25:23.986Z,21.30
2019-02-25T08:25:35.720Z,21.40
2019-02-25T08:25:52.161Z,21.30
2019-02-25T08:26:03.876Z,21.30
2019-02-25T08:26:17.948Z,21.40
2019-02-25T08:26:29.676Z,21.30
2019-02-25T08:26:43.754Z,21.40
2019-02-25T08:26:55.490Z,21.40
2019-02-25T08:27:09.625Z,21.30
2019-02-25T08:27:26.046Z,21.40
2019-02-25T08:27:37.775Z,21.40
2019-02-25T08:27:51.861Z,21.40
2019-02-25T08:28:03.576Z,21.40
2019-02-25T08:28:15.323Z,21.40
2019-02-25T08:28:27.062Z,21.40
2019-02-25T08:28:38.791Z,21.40
2019-02-25T08:28:50.548Z,21.40
2019-02-25T08:29:02.280Z,21.40
2019-02-25T08:29:14.146Z,21.40
2019-02-25T08:29:30.565Z,21.40
2019-02-25T08:29:42.309Z,21.40
2019-02-25T08:29:58.723Z,21.40
2019-02-25T08:30:10.457Z,21.40
2019-02-25T08:30:22.217Z,21.40
2019-02-25T08:30:33.946Z,21.40
2019-02-25T08:30:45.674Z,21.40
2019-02-25T08:30:57.404Z,21.40
2019-02-25T08:31:09.333Z,21.40
2019-02-25T08:31:23.208Z,21.40
2019-02-25T08:31:34.936Z,21.40
2019-02-25T08:31:49.008Z,21.40
2019-02-25T08:32:00.748Z,21.40
2019-02-25T08:32:14.842Z,21.40
2019-02-25T08:32:26.573Z,21.40
2019-02-25T08:32:38.302Z,21.40
2019-02-25T08:32:50.720Z,21.40
2019-02-25T08:33:06.393Z,21.40
2019-02-25T08:33:20.313Z,21.40
2019-02-25T08:33:32.706Z,21.40
2019-02-25T08:33:47.145Z,21.40
2019-02-25T08:34:01.485Z,21.40
2019-02-25T08:34:18.659Z,21.40
2019-02-25T08:34:27.378Z,21.40
2019-02-25T08:34:41.510Z,21.40
2019-02-25T08:34:55.637Z,21.40
2019-02-25T08:35:07.426Z,21.40
2019-02-25T08:35:23.880Z,21.40
2019-02-25T08:35:35.635Z,21.40
2019-02-25T08:35:47.369Z,21.40
2019-02-25T08:36:03.786Z,21.40
2019-02-25T08:36:15.577Z,21.40
2019-02-25T08:36:27.377Z,21.40
2019-02-25T08:36:39.106Z,21.40
2019-02-25T08:36:50.870Z,21.40
2019-02-25T08:37:02.850Z,21.40
2019-02-25T08:37:14.410Z,21.40
2019-02-25T08:37:30.826Z,21.40
2019-02-25T08:37:42.563Z,21.40
2019-02-25T08:37:56.633Z,21.40
2019-02-25T08:38:08.364Z,21.40
2019-02-25T08:38:22.437Z,21.40
2019-02-25T08:38:34.189Z,21.40
2019-02-25T08:38:45.922Z,21.40
2019-02-25T08:38:57.653Z,21.40
2019-02-25T08:39:09.383Z,21.40
2019-02-25T08:39:21.111Z,21.40
2019-02-25T08:39:32.870Z,21.40
2019-02-25T08:39:44.641Z,21.40
2019-02-25T08:39:56.519Z,21.40
2019-02-25T08:40:08.383Z,21.40
2019-02-25T08:40:22.613Z,21.40
2019-02-25T08:40:36.684Z,21.40
2019-02-25T08:40:48.411Z,21.40
2019-02-25T08:41:02.482Z,21.40
2019-02-25T08:41:14.429Z,21.40
2019-02-25T08:41:28.545Z,21.40
2019-02-25T08:41:40.275Z,21.40
2019-02-25T08:41:52.006Z,21.40
2019-02-25T08:42:06.127Z,21.40
2019-02-25T08:42:17.932Z,21.40
2019-02-25T08:42:31.053Z,21.40
2019-02-25T08:42:41.392Z,21.40
2019-02-25T08:42:53.139Z,21.40
2019-02-25T08:43:07.377Z,21.40
2019-02-25T08:43:21.451Z,21.40
2019-02-25T08:43:33.181Z,21.40
2019-02-25T08:43:47.256Z,21.40
2019-02-25T08:43:58.998Z,21.40
2019-02-25T08:44:10.729Z,21.40
2019-02-25T08:44:22.459Z,21.40
2019-02-25T08:44:34.276Z,21.40
2019-02-25T08:44:46.082Z,21.40
2019-02-25T08:45:00.325Z,21.40
2019-02-25T08:45:11.958Z,21.40
2019-02-25T08:45:23.690Z,21.40
2019-02-25T08:45:35.460Z,21.40
2019-02-25T08:45:49.528Z,21.40
2019-02-25T08:46:01.256Z,21.40
2019-02-25T08:46:15.334Z,21.40
2019-02-25T08:46:27.064Z,21.40
2019-02-25T08:46:43.518Z,21.40
2019-02-25T08:46:55.250Z,21.40
2019-02-25T08:47:06.977Z,21.40
2019-02-25T08:47:18.707Z,21.40
2019-02-25T08:47:30.437Z,21.40
2019-02-25T08:47:44.556Z,21.40
2019-02-25T08:47:56.286Z,21.40
2019-02-25T08:48:08.066Z,21.40
2019-02-25T08:48:19.814Z,21.40
2019-02-25T08:48:31.584Z,21.40
2019-02-25T08:48:43.345Z,21.40
2019-02-25T08:48:57.421Z,21.40
2019-02-25T08:49:09.191Z,21.40
2019-02-25T08:49:20.918Z,21.40
2019-02-25T08:49:32.740Z,21.40
2019-02-25T08:49:44.530Z,21.40
2019-02-25T08:49:56.366Z,21.40
2019-02-25T08:50:10.608Z,21.40
2019-02-25T08:50:22.341Z,21.40
2019-02-25T08:50:34.068Z,21.40
2019-02-25T08:50:45.800Z,21.40
2019-02-25T08:50:57.543Z,21.40
2019-02-25T08:51:09.290Z,21.40
2019-02-25T08:51:21.019Z,21.40
2019-02-25T08:51:32.744Z,21.40
2019-02-25T08:51:44.477Z,21.40
2019-02-25T08:51:56.217Z,21.40
2019-02-25T08:52:07.981Z,21.40
2019-02-25T08:52:19.709Z,21.40
2019-02-25T08:52:31.445Z,21.40
2019-02-25T08:52:43.173Z,21.40
2019-02-25T08:52:57.246Z,21.40
2019-02-25T08:53:09.013Z,21.40
2019-02-25T08:53:20.742Z,21.40
2019-02-25T08:53:32.473Z,21.40
2019-02-25T08:53:44.201Z,21.40
2019-02-25T08:53:55.930Z,21.40
2019-02-25T08:54:07.689Z,21.40
2019-02-25T08:54:19.416Z,21.40
2019-02-25T08:54:31.197Z,21.40
2019-02-25T08:54:42.879Z,21.40
2019-02-25T08:54:56.975Z,21.40
2019-02-25T08:55:08.706Z,21.40
2019-02-25T08:55:20.435Z,21.40
2019-02-25T08:55:32.162Z,21.40
2019-02-25T08:55:43.988Z,21.40
2019-02-25T08:55:55.720Z,21.40
2019-02-25T08:56:07.513Z,21.40
2019-02-25T08:56:19.243Z,21.40
2019-02-25T08:56:30.971Z,21.40
2019-02-25T08:56:42.713Z,21.40
2019-02-25T08:56:54.442Z,21.40
2019-02-25T08:57:06.167Z,21.40
2019-02-25T08:57:17.897Z,21.40
2019-02-25T08:57:29.632Z,21.40
2019-02-25T08:57:41.360Z,21.40
2019-02-25T08:57:55.513Z,21.40
2019-02-25T08:58:07.261Z,21.40
2019-02-25T08:58:18.991Z,21.40
2019-02-25T08:58:30.717Z,21.40
2019-02-25T08:58:44.793Z,21.40
2019-02-25T08:58:56.562Z,21.40
2019-02-25T08:59:08.302Z,21.40
2019-02-25T08:59:22.374Z,21.40
2019-02-25T08:59:34.158Z,21.40
2019-02-25T08:59:45.890Z,21.40
2019-02-25T08:59:59.999Z,21.40
2019-02-25T09:00:11.777Z,21.40
2019-02-25T09:00:23.494Z,21.40
2019-02-25T09:00:35.237Z,21.40
2019-02-25T09:00:49.318Z,21.40
2019-02-25T09:01:01.049Z,21.40
2019-02-25T09:01:15.572Z,21.40
2019-02-25T09:01:26.897Z,21.40
2019-02-25T09:01:38.623Z,21.40
2019-02-25T09:01:50.352Z,21.40
2019-02-25T09:02:02.122Z,21.40
2019-02-25T09:02:13.860Z,21.40
2019-02-25T09:02:30.279Z,21.40
2019-02-25T09:02:42.008Z,21.40
2019-02-25T09:02:53.820Z,21.40
2019-02-25T09:03:05.601Z,21.40
2019-02-25T09:03:17.339Z,21.40
2019-02-25T09:03:29.076Z,21.40
2019-02-25T09:03:40.803Z,21.40
2019-02-25T09:03:57.221Z,21.40
2019-02-25T09:04:09.101Z,21.40
2019-02-25T09:04:20.828Z,21.40
2019-02-25T09:04:34.914Z,21.40
2019-02-25T09:04:46.646Z,21.40
2019-02-25T09:04:58.376Z,21.40
2019-02-25T09:05:10.146Z,21.40
2019-02-25T09:05:21.883Z,21.40
2019-02-25T09:05:33.650Z,21.40
2019-02-25T09:05:50.068Z,21.40
2019-02-25T09:06:01.804Z,21.40
2019-02-25T09:06:15.881Z,21.50
2019-02-25T09:06:28.324Z,21.40
2019-02-25T09:06:42.400Z,21.40
2019-02-25T09:06:54.205Z,21.40
2019-02-25T09:07:05.968Z,21.40
2019-02-25T09:07:17.704Z,21.40
2019-02-25T09:07:29.482Z,21.40
2019-02-25T09:07:42.758Z,21.50
2019-02-25T09:07:52.950Z,21.40
2019-02-25T09:08:04.674Z,21.40
2019-02-25T09:08:18.753Z,21.40
2019-02-25T09:08:30.502Z,21.40
2019-02-25T09:08:42.231Z,21.40
2019-02-25T09:08:53.959Z,21.40
2019-02-25T09:09:05.690Z,21.40
2019-02-25T09:09:17.424Z,21.40
2019-02-25T09:09:29.148Z,21.40
2019-02-25T09:09:40.879Z,21.40
2019-02-25T09:09:52.608Z,21.40
2019-02-25T09:10:06.689Z,21.50
2019-02-25T09:10:18.430Z,21.40
2019-02-25T09:10:30.157Z,21.50
2019-02-25T09:10:41.901Z,21.40
2019-02-25T09:10:53.630Z,21.40
2019-02-25T09:11:13.970Z,21.50
2019-02-25T09:11:17.132Z,21.50
2019-02-25T09:11:28.868Z,21.50
2019-02-25T09:11:42.944Z,21.50
2019-02-25T09:11:54.698Z,21.40
2019-02-25T09:12:06.427Z,21.40
2019-02-25T09:12:18.160Z,21.40
2019-02-25T09:12:29.890Z,21.40
2019-02-25T09:12:41.623Z,21.40
2019-02-25T09:12:53.351Z,21.40
2019-02-25T09:13:07.441Z,21.40
2019-02-25T09:13:19.170Z,21.40
2019-02-25T09:13:30.901Z,21.50
2019-02-25T09:13:42.633Z,21.50
2019-02-25T09:13:54.360Z,21.50
2019-02-25T09:14:06.126Z,21.40
2019-02-25T09:14:17.860Z,21.40
2019-02-25T09:14:29.589Z,21.40
2019-02-25T09:14:41.318Z,21.40
2019-02-25T09:14:53.075Z,21.40
2019-02-25T09:15:04.803Z,21.50
2019-02-25T09:15:16.538Z,21.50
2019-02-25T09:15:28.265Z,21.50
2019-02-25T09:15:40.006Z,21.40
2019-02-25T09:15:51.738Z,21.50
2019-02-25T09:16:08.157Z,21.40
2019-02-25T09:16:19.886Z,21.40